Mohler, Oregon
Current Conditions -  °F | °C
As of 3:55 AM on Tuesday 27 Jan 2015 (Local Time) from KAST Reporting Station
Overcast Overcast  
Wind Chill: 45°   Ceiling: 2300
Heat Index: 47°   Visibility: 8mi
Dew Point: 45°   Wind: 5mph
Humidity: 93%   Direction: 60°ENE
Pressure: 30"   Gusts: NA
Location:  45.7222°N, 123.684°W
Report Text: KAST 271155Z AUTO 06004KT 8SM BKN023 OVC028 08/07 A3000 RMK AO2 SLP159 70001 T00830072 10089 20083 50001
Loading
Personal Weather Stations






























Interactive Weather Map New forecast layout! Learn more

10-Day Weather Forecast

Advertisements
Track Severe Weather on mobile